Ashley Falls, Massachusetts
Current Conditions -  °F | °C
As of 7:54 AM on Saturday 25 Oct 2014 (Local Time) from KPSF Reporting Station
Overcast Overcast  
Wind Chill: 39°   Ceiling: 1100
Heat Index: 44°   Visibility: 7mi
Dew Point: 41°   Wind: 10mph
Humidity: 89%   Direction: 290°WNW
Pressure: 29.8"   Gusts: NA
Location:  42.06°N, 73.34°W
Report Text: KPSF 251154Z AUTO 29009KT 7SM OVC011 07/05 A2980 RMK AO2 SLP089 T00670050 10072 20050 58003
Loading
Personal Weather Stations






























Interactive Weather Map
Tropical Storm Tracking
New forecast layout! Learn more

10-Day Weather Forecast

Advertisements
Track Severe Weather on mobile